Dades meteomassalio
Diari Summary for Juny 3, 2017 Units:  English    Metric   Both
« Previous Day
Next Day »
Diari Semanal Mensual Anual Personalitzat
  Maxima: Minima: Mijana:
Temperatura: TemperatureC °F 17.7 °F 19.8 °F
Rosada: DewpointC °F 14.3 °F 16.8 °F
Humitat: Humidity % 52 % 84 %
Velocitat del vent: WindSpeedKMH mph 0.0 mph 6.7 mph
Racha vent: WindSpeedGustKMH mph - -
Vent:- - SW
Pressio: PressurehPa in 1013.1 in -
Pluja: 7.1 in    
Historical Graphs
 
 
Tabular Data for Juny 3, 2017
Time Temperature Dew Point Pressure Wind Wind Speed Wind Gust Humidity Rainfall Rate (Hourly) solar Conditions
TemperatureC °F DewpointC °F PressurehPa in Calm     Humidity % HourlyPrecipMM in SolarRadiationWatts/m^2 W/m2 Conditions
00:01 19.1 °F 17.4 °F 1016.1 in Calm     90 % 1.5 in 0.0 W/m2 RA
00:06 19.1 °F 17.4 °F 1016.1 in Calm     90 % 1.5 in 0.0 W/m2 CLR
00:11 19.1 °F 17.4 °F 1016.1 in Calm     90 % 1.5 in 0.0 W/m2 RA
00:16 19.1 °F 17.4 °F 1016.1 in NNW 16.7 mph 16.7 mph 90 % 1.5 in 0.0 W/m2
00:21 19.1 °F 17.4 °F 1016.5 in NW 7.4 mph 7.4 mph 90 % 1.5 in 0.0 W/m2 CLR
00:26 19.0 °F 17.3 °F 1016.5 in Calm     90 % 1.5 in 0.0 W/m2 CLR
00:31 18.9 °F 17.3 °F 1016.8 in NW 12.9 mph 12.9 mph 90 % 1.3 in 0.0 W/m2 CLR
00:36 18.9 °F 17.3 °F 1017.5 in WNW 13.0 mph 13.0 mph 90 % 1.3 in 0.0 W/m2 CLR
00:41 18.9 °F 17.3 °F 1017.2 in WNW 7.4 mph 7.4 mph 90 % 1.0 in 0.0 W/m2 CLR
00:46 18.9 °F 17.3 °F 1017.2 in Calm     90 % 0.5 in 0.0 W/m2 CLR
00:51 18.9 °F 17.3 °F 1017.5 in Calm     90 % 0.3 in 0.0 W/m2 CLR
00:56 18.9 °F 17.2 °F 1017.5 in Calm     90 % 0.3 in 0.0 W/m2 CLR
01:01 18.9 °F 17.2 °F 1017.5 in Calm     90 % 0.3 in 0.0 W/m2 CLR
01:06 18.8 °F 17.2 °F 1017.5 in Calm     90 % 0.3 in 0.0 W/m2 CLR
01:11 18.8 °F 17.3 °F 1017.5 in Calm     91 % 0.0 in 0.0 W/m2 CLR
01:16 18.8 °F 17.3 °F 1017.5 in Calm     91 % 0.0 in 0.0 W/m2 CLR
01:21 18.8 °F 17.3 °F 1017.8 in Calm     91 % 0.0 in 0.0 W/m2 CLR
01:26 18.8 °F 17.3 °F 1017.8 in Calm     91 % 0.0 in 0.0 W/m2 CLR
01:31 18.8 °F 17.3 °F 1017.8 in Calm     91 % 0.0 in 0.0 W/m2 CLR
01:36 18.7 °F 17.2 °F 1017.8 in Calm     91 % 0.0 in 0.0 W/m2 CLR
01:41 18.7 °F 17.2 °F 1017.8 in West 5.6 mph 5.6 mph 91 % 0.0 in 0.0 W/m2 CLR
01:46 18.7 °F 17.2 °F 1017.8 in WNW 8.0 mph 8.0 mph 91 % 0.0 in 0.0 W/m2 CLR
01:51 18.8 °F 17.3 °F 1017.8 in West 5.6 mph 5.6 mph 91 % 0.0 in 0.0 W/m2 CLR
01:56 18.8 °F 17.1 °F 1017.5 in West 5.6 mph   90 % 0.0 in 0.0 W/m2 CLR
02:01 18.8 °F 17.2 °F 1017.8 in WSW 12.9 mph 12.9 mph 90 % 0.0 in 0.0 W/m2 CLR
02:06 18.9 °F 17.3 °F 1017.8 in West 18.5 mph 18.5 mph 90 % 0.0 in 0.0 W/m2 CLR
02:11 19.1 °F 17.3 °F 1017.5 in West 11.3 mph 11.3 mph 89 % 0.0 in 0.0 W/m2 CLR
02:16 19.2 °F 17.3 °F 1017.5 in West 11.3 mph 11.3 mph 89 % 0.0 in 0.0 W/m2 CLR
02:19 19.2 °F 17.4 °F 1017.5 in West 11.1 mph 11.1 mph 89 % 0.0 in 0.0 W/m2 CLR
02:24 19.3 °F 17.4 °F 1017.5 in WNW 11.1 mph 11.1 mph 89 % 0.0 in 0.0 W/m2 CLR
02:29 19.3 °F 17.5 °F 1017.5 in WNW 14.8 mph 14.8 mph 89 % 0.0 in 0.0 W/m2 CLR
02:34 19.2 °F 17.6 °F 1017.5 in NW 16.7 mph 16.7 mph 90 % 0.0 in 0.0 W/m2 CLR
02:39 19.1 °F 17.4 °F 1017.5 in WNW 14.8 mph 14.8 mph 90 % 0.0 in 0.0 W/m2 CLR
02:44 19.1 °F 17.4 °F 1017.5 in WNW 9.3 mph 9.3 mph 90 % 0.0 in 0.0 W/m2 CLR
02:49 19.1 °F 17.4 °F 1017.5 in Calm     90 % 0.0 in 0.0 W/m2 CLR
02:54 19.1 °F 17.6 °F 1017.5 in Calm     91 % 0.0 in 0.0 W/m2 CLR
02:59 19.0 °F 17.5 °F 1017.5 in Calm     91 % 0.0 in 0.0 W/m2 CLR
03:04 19.0 °F 17.5 °F 1017.5 in Calm     91 % 0.0 in 0.0 W/m2 CLR
03:09 18.9 °F 17.4 °F 1017.2 in SW 5.6 mph   91 % 0.0 in 0.0 W/m2 CLR
03:14 18.8 °F 17.3 °F 1017.2 in Calm     91 % 0.0 in 0.0 W/m2 CLR
03:19 18.8 °F 17.3 °F 1017.2 in Calm     91 % 0.0 in 0.0 W/m2 CLR
03:24 18.7 °F 17.2 °F 1017.2 in Calm     91 % 0.0 in 0.0 W/m2 CLR
03:29 18.7 °F 17.2 °F 1017.2 in Calm     91 % 0.0 in 0.0 W/m2 CLR
03:34 18.7 °F 17.2 °F 1016.8 in Calm     91 % 0.0 in 0.0 W/m2 CLR
03:39 18.6 °F 17.1 °F 1016.8 in Calm     91 % 0.0 in 0.0 W/m2 CLR
03:44 18.6 °F 17.1 °F 1016.8 in Calm     91 % 0.0 in 0.0 W/m2 CLR
03:49 18.6 °F 17.1 °F 1016.5 in Calm     91 % 0.0 in 0.0 W/m2 CLR
03:54 18.6 °F 17.1 °F 1016.5 in Calm     91 % 0.5 in 0.0 W/m2 RA
03:59 18.6 °F 17.1 °F 1016.1 in Calm     91 % 0.5 in 0.0 W/m2
04:04 18.6 °F 17.1 °F 1016.1 in SSE 8.0 mph 8.0 mph 91 % 0.5 in 0.0 W/m2 CLR
04:09 18.6 °F 17.1 °F 1016.1 in SE 7.4 mph 7.4 mph 91 % 0.5 in 0.0 W/m2 CLR
04:14 18.5 °F 17.0 °F 1015.8 in SSE 5.6 mph 6.1 mph 91 % 0.5 in 0.0 W/m2 CLR
04:20 18.4 °F 16.9 °F 1015.8 in SE 6.4 mph 6.4 mph 91 % 0.5 in 0.0 W/m2 CLR
04:25 18.5 °F 17.0 °F 1015.5 in SE 7.4 mph 7.4 mph 91 % 0.5 in 0.0 W/m2 CLR
04:30 18.4 °F 16.9 °F 1015.8 in South 14.8 mph 14.8 mph 91 % 0.5 in 0.0 W/m2 CLR
04:35 18.4 °F 16.9 °F 1015.5 in SSE 9.3 mph 9.3 mph 91 % 0.5 in 0.0 W/m2 CLR
04:40 18.4 °F 16.9 °F 1015.5 in SSE 14.8 mph 14.8 mph 91 % 0.5 in 0.0 W/m2 CLR
04:45 18.4 °F 16.9 °F 1015.5 in South 14.8 mph 14.8 mph 91 % 0.5 in 0.0 W/m2 CLR
04:50 18.6 °F 16.9 °F 1015.1 in SSE 13.0 mph 13.0 mph 90 % 0.5 in 0.0 W/m2 CLR
04:55 18.6 °F 16.9 °F 1015.1 in Calm     90 % 0.0 in 0.0 W/m2 CLR
05:00 18.6 °F 16.9 °F 1015.1 in Calm     90 % 0.0 in 0.0 W/m2 CLR
05:05 18.6 °F 16.9 °F 1014.8 in SE 4.8 mph 4.8 mph 90 % 0.0 in 0.0 W/m2 CLR
05:10 18.5 °F 16.8 °F 1014.8 in South 7.4 mph 7.4 mph 90 % 0.0 in 0.0 W/m2 CLR
05:15 18.4 °F 16.8 °F 1014.8 in South 11.1 mph 11.1 mph 90 % 0.0 in 0.0 W/m2 CLR
05:20 18.4 °F 16.8 °F 1014.8 in Calm     90 % 0.0 in 0.0 W/m2 CLR
05:25 18.4 °F 16.8 °F 1014.8 in Calm     90 % 0.0 in 0.0 W/m2 CLR
05:30 18.4 °F 16.7 °F 1014.8 in Calm     90 % 0.0 in 0.0 W/m2 CLR
05:35 18.3 °F 16.8 °F 1014.8 in Calm     91 % 0.0 in 0.0 W/m2 CLR
05:40 18.4 °F 16.9 °F 1014.8 in SSE 6.4 mph 6.4 mph 91 % 0.0 in 0.0 W/m2 CLR
05:45 18.4 °F 16.9 °F 1014.8 in Calm     91 % 0.0 in 0.0 W/m2 CLR
05:50 18.4 °F 16.9 °F 1014.8 in Calm     91 % 0.0 in 0.0 W/m2 CLR
05:55 18.4 °F 16.9 °F 1014.8 in Calm     91 % 0.0 in 0.0 W/m2 CLR
06:00 18.3 °F 16.8 °F 1014.8 in Calm     91 % 0.0 in 0.0 W/m2 CLR
06:05 18.3 °F 16.8 °F 1014.8 in Calm     91 % 0.0 in 0.0 W/m2 CLR
06:10 18.3 °F 16.8 °F 1015.1 in Calm     91 % 0.0 in 0.0 W/m2 CLR
06:11 18.3 °F 16.8 °F 1015.1 in Calm     91 % 0.0 in 0.0 W/m2 CLR
06:16 18.3 °F 16.8 °F 1015.1 in West 3.7 mph   91 % 0.0 in 0.0 W/m2 CLR
06:21 18.3 °F 16.8 °F 1015.1 in Calm     91 % 0.0 in 0.0 W/m2 OVC
06:26 18.3 °F 16.8 °F 1014.8 in Calm     91 % 0.0 in 0.0 W/m2 OVC
06:31 18.3 °F 16.8 °F 1014.8 in Calm     91 % 0.0 in 0.0 W/m2 OVC
06:36 18.4 °F 16.9 °F 1014.8 in Calm     91 % 0.3 in 0.0 W/m2 RA
06:41 18.4 °F 16.9 °F 1015.1 in Calm     91 % 0.3 in 0.0 W/m2 CLR
06:46 18.3 °F 16.8 °F 1015.5 in WSW 6.4 mph 6.4 mph 91 % 0.3 in 0.0 W/m2 OVC
06:48 18.2 °F 16.7 °F 1015.5 in WSW 8.0 mph 8.0 mph 91 % 0.3 in 0.0 W/m2 OVC
06:53 18.2 °F 16.7 °F 1015.8 in WSW 16.7 mph 16.7 mph 91 % 0.3 in 5.0 W/m2 OVC
06:58 18.2 °F 16.7 °F 1015.8 in WSW 16.7 mph 16.7 mph 91 % 0.3 in 5.0 W/m2 OVC
07:03 18.2 °F 16.8 °F 1016.1 in WSW 17.7 mph 17.7 mph 92 % 0.3 in 5.0 W/m2 OVC
07:08 18.2 °F 16.7 °F 1015.8 in Calm     91 % 0.3 in 0.0 W/m2 OVC
07:13 18.2 °F 16.7 °F 1015.8 in Calm     91 % 0.3 in 0.0 W/m2 OVC
07:18 18.2 °F 16.7 °F 1015.8 in Calm     91 % 0.5 in 0.0 W/m2 RA
07:23 18.2 °F 16.7 °F 1015.5 in ESE 9.3 mph 9.3 mph 91 % 0.5 in 0.0 W/m2 RA
07:28 18.2 °F 16.7 °F 1015.1 in ESE 9.7 mph 9.7 mph 91 % 0.8 in 0.0 W/m2 RA
07:33 18.1 °F 16.8 °F 1014.8 in SE 9.3 mph 9.3 mph 92 % 0.8 in 0.0 W/m2 RA
07:38 18.1 °F 16.8 °F 1015.5 in West 13.0 mph 13.0 mph 92 % 1.0 in 7.0 W/m2 RA
07:43 18.1 °F 16.8 °F 1015.8 in West 11.1 mph 11.1 mph 92 % 1.0 in 12.0 W/m2 BKN
07:48 18.1 °F 16.8 °F 1015.8 in Calm     92 % 1.3 in 23.0 W/m2 RA
07:53 18.1 °F 16.8 °F 1015.5 in Calm     92 % 1.3 in 30.0 W/m2 BKN
07:58 18.1 °F 16.8 °F 1015.5 in NNE 9.3 mph 9.3 mph 92 % 1.3 in 35.0 W/m2 BKN
08:03 18.2 °F 16.8 °F 1015.1 in North 16.7 mph 16.7 mph 92 % 1.3 in 46.0 W/m2 BKN
08:08 18.2 °F 16.9 °F 1015.5 in Calm     92 % 1.3 in 63.0 W/m2 SCT
08:13 18.3 °F 16.9 °F 1015.8 in Calm     92 % 1.3 in 81.0 W/m2 SCT
08:18 18.4 °F 17.1 °F 1016.5 in West 16.7 mph 16.7 mph 92 % 1.0 in 90.0 W/m2 FEW
08:23 18.5 °F 17.2 °F 1016.5 in NW 18.5 mph 18.5 mph 92 % 0.8 in 74.0 W/m2 CLR
08:28 18.4 °F 16.9 °F 1015.8 in Calm     91 % 0.5 in 32.0 W/m2 FEW
08:33 18.4 °F 17.1 °F 1015.5 in Calm     92 % 0.5 in 25.0 W/m2 BKN
08:38 18.4 °F 17.1 °F 1015.1 in Calm     92 % 0.5 in 39.0 W/m2 RA
08:43 18.4 °F 17.1 °F 1015.1 in Calm     92 % 0.5 in 56.0 W/m2 RA
08:48 18.4 °F 17.1 °F 1015.1 in Calm     92 % 0.5 in 77.0 W/m2 SCT
08:53 18.4 °F 17.1 °F 1015.1 in Calm     92 % 0.5 in 113.0 W/m2 FEW
08:58 18.5 °F 17.2 °F 1015.1 in Calm     92 % 0.5 in 171.0 W/m2 CLR
09:03 18.6 °F 17.2 °F 1015.1 in Calm     92 % 0.5 in 185.0 W/m2 CLR
09:08 18.7 °F 17.3 °F 1015.5 in Calm     92 % 0.5 in 95.0 W/m2 CLR
09:13 18.6 °F 17.3 °F 1015.8 in ENE 8.0 mph 8.0 mph 92 % 0.5 in 30.0 W/m2 FEW
09:18 18.6 °F 17.3 °F 1015.8 in ENE 11.1 mph 11.1 mph 92 % 0.5 in 18.0 W/m2 SCT
09:23 18.7 °F 17.4 °F 1015.8 in West 9.3 mph 9.3 mph 92 % 0.5 in 12.0 W/m2 BKN
09:28 18.7 °F 17.3 °F 1016.1 in WSW 14.5 mph 14.5 mph 92 % 0.5 in 11.0 W/m2 BKN
09:33 18.6 °F 17.3 °F 1016.1 in SW 11.1 mph 11.1 mph 92 % 0.5 in 12.0 W/m2 BKN
09:38 18.5 °F 17.2 °F 1016.5 in WSW 16.7 mph 16.7 mph 92 % 0.3 in 19.0 W/m2 BKN
09:48 18.4 °F 17.1 °F 1016.1 in Calm     92 % 0.3 in 44.0 W/m2 BKN
09:53 18.5 °F 17.2 °F 1016.1 in Calm     92 % 0.3 in 53.0 W/m2 BKN
09:58 18.6 °F 17.2 °F 1015.8 in Calm     92 % 0.3 in 65.0 W/m2 SCT
10:03 18.6 °F 17.2 °F 1015.8 in Calm     92 % 0.3 in 83.0 W/m2 FEW
10:08 18.6 °F 17.3 °F 1015.8 in Calm     92 % 0.5 in 81.0 W/m2 RA
10:13 18.7 °F 17.3 °F 1015.8 in Calm     92 % 0.5 in 91.0 W/m2 FEW
10:18 18.7 °F 17.4 °F 1015.8 in Calm     92 % 0.5 in 204.0 W/m2 CLR
10:23 18.8 °F 17.5 °F 1015.8 in Calm     92 % 0.5 in 195.0 W/m2 CLR
10:28 18.9 °F 17.6 °F 1015.8 in Calm     92 % 0.5 in 86.0 W/m2 CLR
10:33 18.9 °F 17.6 °F 1015.8 in Calm     92 % 0.5 in 25.0 W/m2 FEW
10:38 18.8 °F 17.3 °F 1015.8 in SSE 1.9 mph   91 % 0.5 in 23.0 W/m2 BKN
10:43 18.6 °F 17.1 °F 1015.5 in SE 7.4 mph 7.4 mph 91 % 1.5 in 40.0 W/m2 RA
10:48 18.6 °F 17.1 °F 1015.1 in ESE 4.8 mph 4.8 mph 91 % 2.3 in 53.0 W/m2 RA
10:53 18.4 °F 16.9 °F 1015.5 in SE 3.7 mph   91 % 2.3 in 165.0 W/m2 SCT
10:58 18.4 °F 17.1 °F 1015.5 in Calm     92 % 2.3 in 137.0 W/m2 CLR
11:03 18.4 °F 17.1 °F 1015.8 in Calm     92 % 2.3 in 49.0 W/m2 CLR
11:08 18.3 °F 16.8 °F 1015.5 in Calm     91 % 2.0 in 91.0 W/m2 RA
11:13 18.3 °F 16.8 °F 1015.8 in Calm     91 % 2.5 in 227.0 W/m2 RA
11:18 18.4 °F 17.1 °F 1015.8 in Calm     92 % 2.5 in 239.0 W/m2 CLR
11:23 18.5 °F 17.2 °F 1015.8 in Calm     92 % 2.5 in 105.0 W/m2 CLR
11:28 18.6 °F 17.1 °F 1016.1 in WSW 6.4 mph 6.4 mph 91 % 2.5 in 70.0 W/m2 CLR
11:33 18.6 °F 17.1 °F 1015.8 in Calm     91 % 2.5 in 88.0 W/m2 FEW
11:39 18.7 °F 17.2 °F 1016.1 in Calm     91 % 2.5 in 121.0 W/m2 CLR
11:44 18.9 °F 17.4 °F 1016.1 in Calm     91 % 1.5 in 62.0 W/m2 CLR
11:49 18.9 °F 17.4 °F 1016.5 in Calm     91 % 1.3 in 93.0 W/m2 RA
11:54 18.9 °F 17.4 °F 1016.5 in Calm     91 % 1.3 in 135.0 W/m2 FEW
11:59 19.1 °F 17.6 °F 1017.2 in WNW 13.0 mph 13.0 mph 91 % 1.3 in 79.0 W/m2 CLR
12:04 19.1 °F 17.4 °F 1018.2 in WNW 27.8 mph 27.8 mph 90 % 1.3 in 83.0 W/m2 CLR
12:09 19.1 °F 17.4 °F 1017.5 in NNW 18.5 mph 18.5 mph 90 % 1.0 in 81.0 W/m2 FEW
12:14 19.1 °F 17.4 °F 1017.8 in NW 20.4 mph 20.4 mph 90 % 0.5 in 30.0 W/m2 FEW
12:19 19.1 °F 17.6 °F 1017.5 in North 11.1 mph 11.1 mph 91 % 0.5 in 30.0 W/m2 SCT
12:24 19.1 °F 17.6 °F 1017.5 in Calm     91 % 0.8 in 40.0 W/m2 RA
12:29 19.0 °F 17.5 °F 1017.2 in Calm     91 % 1.0 in 70.0 W/m2 RA
12:34 19.1 °F 17.6 °F 1017.2 in Calm     91 % 1.3 in 176.0 W/m2 RA
12:39 19.2 °F 17.7 °F 1017.2 in Calm     91 % 1.3 in 378.0 W/m2 CLR
12:44 19.4 °F 18.1 °F 1017.2 in Calm     92 % 1.3 in 271.0 W/m2 CLR
12:49 19.4 °F 17.9 °F 1017.2 in East 3.7 mph 3.7 mph 91 % 0.8 in 272.0 W/m2 CLR
12:54 19.6 °F 18.3 °F 1016.8 in ESE 3.2 mph   92 % 0.8 in 241.0 W/m2 CLR
12:59 19.6 °F 18.1 °F 1016.8 in ENE 3.7 mph 3.7 mph 91 % 0.8 in 174.0 W/m2 CLR
13:04 19.6 °F 18.3 °F 1016.5 in Calm     92 % 0.8 in 155.0 W/m2 CLR
13:09 19.5 °F 18.0 °F 1016.5 in Calm     91 % 0.8 in 98.0 W/m2 CLR
13:14 19.5 °F 18.0 °F 1016.8 in Calm     91 % 0.8 in 70.0 W/m2 CLR
13:19 19.3 °F 17.8 °F 1016.8 in Calm     91 % 0.5 in 56.0 W/m2 FEW
13:24 19.4 °F 17.9 °F 1016.5 in SE 11.1 mph 11.1 mph 91 % 0.5 in 44.0 W/m2 SCT
13:29 19.3 °F 17.8 °F 1016.5 in SE 11.1 mph 11.1 mph 91 % 0.3 in 44.0 W/m2 SCT
13:34 19.4 °F 17.9 °F 1016.1 in SSE 8.0 mph 8.0 mph 91 % 0.0 in 72.0 W/m2 SCT
13:39 19.3 °F 17.7 °F 1016.1 in SE 14.8 mph 14.8 mph 90 % 0.0 in 116.0 W/m2 FEW
13:44 19.3 °F 17.7 °F 1016.1 in SSE 6.4 mph 6.4 mph 90 % 0.0 in 225.0 W/m2 CLR
13:49 19.4 °F 17.7 °F 1016.1 in Calm     90 % 0.0 in 211.0 W/m2 CLR
13:54 19.3 °F 17.7 °F 1016.1 in SSW 13.0 mph 13.0 mph 90 % 0.0 in 236.0 W/m2 CLR
13:59 19.4 °F 17.7 °F 1016.5 in Calm     90 % 0.0 in 192.0 W/m2 CLR
14:04 19.4 °F 17.6 °F 1017.2 in SW 11.3 mph 11.3 mph 89 % 0.0 in 134.0 W/m2 CLR
14:09 19.5 °F 17.6 °F 1017.5 in WSW 13.0 mph 13.0 mph 89 % 0.0 in 171.0 W/m2 CLR
14:14 19.6 °F 17.5 °F 1017.2 in SSW 9.3 mph 9.3 mph 88 % 0.0 in 229.0 W/m2 CLR
14:19 19.7 °F 17.6 °F 1017.5 in SW 13.0 mph 13.0 mph 88 % 0.0 in 269.0 W/m2 CLR
14:24 19.8 °F 17.9 °F 1017.2 in SW 14.8 mph 14.8 mph 89 % 0.0 in 345.0 W/m2 CLR
14:29 19.9 °F 18.1 °F 1016.8 in SW 9.3 mph 9.3 mph 89 % 0.0 in 327.0 W/m2 CLR
14:39 20.2 °F 18.2 °F 1016.5 in SSW 3.7 mph 3.7 mph 88 % 0.3 in 464.0 W/m2 RA
14:44 20.4 °F 18.2 °F 1015.5 in SE 11.1 mph 11.1 mph 87 % 0.3 in 264.0 W/m2 CLR
14:49 20.6 °F 18.3 °F 1015.1 in SE 19.3 mph 19.3 mph 87 % 0.3 in 179.0 W/m2 CLR
14:54 20.3 °F 18.1 °F 1014.8 in SSE 24.1 mph 24.1 mph 87 % 0.3 in 165.0 W/m2 CLR
14:59 20.2 °F 18.0 °F 1014.1 in South 13.0 mph 13.0 mph 87 % 0.3 in 243.0 W/m2 CLR
15:04 20.4 °F 18.2 °F 1013.8 in SE 22.2 mph 22.2 mph 87 % 0.3 in 287.0 W/m2 CLR
15:09 20.5 °F 18.1 °F 1013.8 in SE 11.1 mph 11.1 mph 86 % 0.3 in 445.0 W/m2 CLR
15:14 20.8 °F 18.2 °F 1013.8 in SSE 7.4 mph 7.4 mph 85 % 0.3 in 464.0 W/m2 CLR
15:19 21.1 °F 18.1 °F 1013.8 in South 11.3 mph 11.3 mph 83 % 0.3 in 322.0 W/m2 CLR
15:24 21.4 °F 17.8 °F 1014.1 in SSE 13.0 mph 13.0 mph 80 % 0.3 in 338.0 W/m2 CLR
15:29 21.7 °F 18.1 °F 1014.1 in South 14.8 mph 14.8 mph 80 % 0.3 in 846.0 W/m2 CLR
15:34 22.1 °F 18.2 °F 1014.1 in South 11.1 mph 11.1 mph 79 % 0.3 in 889.0 W/m2 CLR
15:39 22.4 °F 18.4 °F 1014.1 in SSW 9.7 mph 9.7 mph 78 % 0.0 in 868.0 W/m2 CLR
15:44 22.8 °F 18.4 °F 1013.8 in South 5.6 mph 5.6 mph 76 % 0.0 in 889.0 W/m2 CLR
15:49 23.1 °F 18.7 °F 1013.8 in South 14.5 mph 14.5 mph 76 % 0.0 in 909.0 W/m2 CLR
15:54 23.3 °F 17.6 °F 1013.8 in South 12.9 mph 12.9 mph 70 % 0.0 in 877.0 W/m2 CLR
15:59 23.6 °F 17.6 °F 1013.8 in South 9.7 mph 9.7 mph 69 % 0.0 in 835.0 W/m2 CLR
16:04 23.8 °F 15.8 °F 1013.8 in South 11.3 mph 11.3 mph 61 % 0.0 in 819.0 W/m2 CLR
16:09 24.0 °F 15.8 °F 1013.8 in SW 1.9 mph   60 % 0.0 in 807.0 W/m2 CLR
16:14 24.3 °F 16.0 °F 1013.8 in Calm     60 % 0.0 in 817.0 W/m2 CLR
16:19 24.6 °F 15.5 °F 1013.8 in SSW 7.4 mph 7.4 mph 57 % 0.0 in 803.0 W/m2 CLR
16:24 24.8 °F 15.7 °F 1014.1 in Calm     57 % 0.0 in 789.0 W/m2 CLR
16:29 25.2 °F 15.5 °F 1013.8 in Calm     55 % 0.0 in 779.0 W/m2 CLR
16:34 25.4 °F 15.7 °F 1013.8 in Calm     55 % 0.0 in 779.0 W/m2 CLR
16:39 25.7 °F 15.4 °F 1013.4 in Calm     53 % 0.0 in 770.0 W/m2 CLR
16:44 25.7 °F 16.3 °F 1013.4 in East 5.6 mph 5.6 mph 56 % 0.0 in 758.0 W/m2 CLR
16:49 25.7 °F 16.0 °F 1013.1 in East 5.6 mph 5.6 mph 55 % 0.0 in 745.0 W/m2 CLR
16:54 25.7 °F 16.6 °F 1013.4 in North 1.9 mph   57 % 0.0 in 728.0 W/m2 CLR
17:00 25.9 °F 16.2 °F 1013.4 in NNW 1.9 mph 1.9 mph 55 % 0.0 in 708.0 W/m2 CLR
17:05 26.2 °F 17.3 °F 1013.4 in NNE 7.4 mph 7.4 mph 58 % 0.0 in 684.0 W/m2 CLR
17:10 26.3 °F 16.8 °F 1013.4 in NE 5.6 mph 5.6 mph 56 % 0.0 in 694.0 W/m2 CLR
17:15 26.3 °F 15.7 °F 1013.8 in Calm     52 % 0.0 in 687.0 W/m2 CLR
17:20 26.4 °F 16.7 °F 1013.4 in Calm     55 % 0.0 in 691.0 W/m2 CLR
17:25 26.8 °F 17.3 °F 1013.4 in Calm     56 % 0.0 in 693.0 W/m2 CLR
17:30 26.8 °F 16.2 °F 1013.4 in NNE 1.9 mph   52 % 0.0 in 462.0 W/m2 CLR
17:35 26.8 °F 16.4 °F 1013.4 in Calm     53 % 0.0 in 563.0 W/m2 CLR
17:40 26.8 °F 16.7 °F 1013.4 in Calm     54 % 0.0 in 696.0 W/m2 CLR
17:45 26.8 °F 16.2 °F 1013.8 in Calm     52 % 0.0 in 652.0 W/m2 CLR
17:50 27.1 °F 17.3 °F 1013.8 in Calm   0.2 mph 55 % 0.0 in 566.0 W/m2 CLR
17:55 27.2 °F 16.5 °F 1013.8 in North 7.4 mph 7.4 mph 52 % 0.0 in 552.0 W/m2 CLR
18:00 27.1 °F 16.7 °F 1013.8 in NE 7.4 mph 7.4 mph 53 % 0.0 in 689.0 W/m2 CLR
18:05 26.7 °F 17.2 °F 1014.1 in NNE 11.3 mph 11.3 mph 56 % 0.0 in 69.0 W/m2 CLR
18:10 26.2 °F 17.0 °F 1014.1 in North 14.8 mph 14.8 mph 57 % 0.0 in 60.0 W/m2 FEW
18:15 25.5 °F 16.6 °F 1014.1 in North 17.7 mph 17.7 mph 58 % 0.0 in 84.0 W/m2 FEW
18:20 25.1 °F 16.8 °F 1014.1 in North 22.2 mph 22.2 mph 60 % 0.0 in 63.0 W/m2 FEW
18:25 24.8 °F 16.5 °F 1013.8 in NNE 20.4 mph 20.4 mph 60 % 0.0 in 23.0 W/m2 SCT
18:30 24.6 °F 16.3 °F 1014.1 in NNE 18.5 mph 18.5 mph 60 % 0.0 in 16.0 W/m2 BKN
18:35 24.1 °F 17.1 °F 1014.8 in NNW 16.7 mph 16.7 mph 65 % 0.0 in 9.0 W/m2 BKN
18:40 23.6 °F 17.1 °F 1015.1 in North 18.5 mph 18.5 mph 67 % 0.0 in 7.0 W/m2 BKN
18:45 23.3 °F 16.8 °F 1014.8 in NNW 9.3 mph 9.3 mph 67 % 0.0 in 7.0 W/m2 BKN
18:50 23.2 °F 16.9 °F 1014.8 in NNW 9.7 mph 9.7 mph 68 % 0.0 in 5.0 W/m2 BKN
18:55 23.1 °F 17.1 °F 1015.1 in NNW 5.6 mph 5.6 mph 69 % 0.0 in 5.0 W/m2 BKN
19:00 22.9 °F 17.2 °F 1015.1 in NW 5.6 mph   70 % 0.0 in 7.0 W/m2 BKN
19:05 22.9 °F 17.1 °F 1014.8 in NNW 8.0 mph 8.0 mph 70 % 0.0 in 7.0 W/m2 BKN
19:10 22.8 °F 17.0 °F 1014.8 in NW 9.7 mph 9.7 mph 70 % 0.0 in 9.0 W/m2 BKN
19:15 22.7 °F 16.7 °F 1015.1 in NW 14.8 mph 14.8 mph 69 % 0.0 in 12.0 W/m2 BKN
19:20 22.7 °F 16.4 °F 1015.5 in NNW 18.5 mph 18.5 mph 68 % 0.0 in 16.0 W/m2 BKN
19:25 22.0 °F 17.2 °F 1015.5 in WNW 29.6 mph 29.6 mph 74 % 0.0 in 21.0 W/m2 BKN
19:30 21.0 °F 17.0 °F 1015.5 in WNW 24.1 mph 24.1 mph 78 % 0.0 in 33.0 W/m2 BKN
19:35 20.5 °F 16.9 °F 1015.5 in WNW 24.1 mph 24.1 mph 80 % 0.0 in 47.0 W/m2 BKN
19:40 20.3 °F 16.9 °F 1015.8 in WNW 12.9 mph 12.9 mph 81 % 0.0 in 58.0 W/m2 SCT
19:45 20.2 °F 16.8 °F 1015.8 in West 9.7 mph 9.7 mph 81 % 0.0 in 53.0 W/m2 SCT
19:50 20.2 °F 16.8 °F 1015.8 in WNW 13.0 mph 13.0 mph 81 % 0.0 in 49.0 W/m2 SCT
19:55 20.1 °F 16.7 °F 1015.8 in West 9.3 mph 9.3 mph 81 % 0.0 in 56.0 W/m2 SCT
20:00 20.1 °F 16.7 °F 1016.1 in West 5.6 mph 5.6 mph 81 % 0.0 in 51.0 W/m2 SCT
20:05 20.1 °F 16.9 °F 1016.1 in Calm     82 % 0.0 in 44.0 W/m2 SCT
20:10 20.1 °F 16.9 °F 1016.5 in West 14.8 mph 14.8 mph 82 % 0.0 in 39.0 W/m2 BKN
20:11 20.1 °F 16.9 °F 1016.5 in WNW 7.4 mph 7.4 mph 82 % 0.0 in 39.0 W/m2 BKN
20:16 20.1 °F 16.9 °F 1016.5 in WNW 11.1 mph 11.1 mph 82 % 0.0 in 44.0 W/m2 BKN
20:21 20.0 °F 16.8 °F 1016.5 in NNW 14.5 mph 14.5 mph 82 % 0.0 in 49.0 W/m2 BKN
20:26 20.0 °F 16.6 °F 1016.5 in NW 13.0 mph 13.0 mph 81 % 0.0 in 54.0 W/m2 SCT
20:31 20.1 °F 16.5 °F 1016.5 in NW 14.8 mph 14.8 mph 80 % 0.0 in 60.0 W/m2 SCT
20:36 20.1 °F 16.7 °F 1016.5 in NW 14.8 mph 14.8 mph 81 % 0.0 in 74.0 W/m2 FEW
20:41 20.2 °F 16.6 °F 1016.8 in WNW 9.3 mph 9.3 mph 80 % 0.0 in 81.0 W/m2 FEW
20:46 20.2 °F 16.6 °F 1016.5 in NW 14.8 mph 14.8 mph 80 % 0.0 in 62.0 W/m2 SCT
20:51 20.2 °F 16.7 °F 1016.8 in NW 16.7 mph 16.7 mph 80 % 0.0 in 33.0 W/m2 BKN
20:56 20.2 °F 16.6 °F 1016.8 in WNW 14.5 mph 14.5 mph 80 % 0.0 in 19.0 W/m2 BKN
21:01 20.2 °F 16.4 °F 1016.8 in WNW 14.5 mph 14.5 mph 79 % 0.0 in 18.0 W/m2 BKN
21:06 20.2 °F 16.6 °F 1016.8 in West 25.9 mph 25.9 mph 80 % 0.0 in 18.0 W/m2 BKN
21:11 19.9 °F 16.6 °F 1016.8 in West 20.4 mph 20.4 mph 81 % 0.0 in 23.0 W/m2 BKN
21:16 19.8 °F 16.4 °F 1017.2 in WNW 20.4 mph 20.4 mph 81 % 0.0 in 19.0 W/m2 BKN
21:21 19.6 °F 16.3 °F 1017.2 in NW 5.6 mph 5.6 mph 81 % 0.0 in 14.0 W/m2 BKN
21:22 19.6 °F 16.3 °F 1017.2 in NNW 5.6 mph 5.6 mph 81 % 0.0 in 14.0 W/m2 BKN
21:26 19.5 °F 15.9 °F 1017.2 in NW 9.7 mph 9.7 mph 80 % 0.0 in 11.0 W/m2 BKN
21:32 19.4 °F 15.8 °F 1017.2 in NW 9.3 mph 9.3 mph 80 % 0.0 in 7.0 W/m2 OVC
21:37 19.3 °F 15.8 °F 1017.2 in NNW 9.7 mph 9.7 mph 80 % 0.0 in 0.0 W/m2 OVC
21:42 19.2 °F 15.9 °F 1017.2 in NNW 5.6 mph 5.6 mph 81 % 0.0 in 0.0 W/m2 CLR
21:47 19.1 °F 15.8 °F 1017.2 in WNW 9.3 mph 9.3 mph 81 % 0.0 in 0.0 W/m2 CLR
21:52 19.1 °F 15.7 °F 1017.5 in WNW 9.7 mph 9.7 mph 81 % 0.0 in 0.0 W/m2 CLR
21:57 19.0 °F 15.3 °F 1017.5 in NW 20.4 mph 20.4 mph 79 % 0.0 in 0.0 W/m2 CLR
22:02 18.8 °F 15.1 °F 1017.5 in NW 18.5 mph 18.5 mph 79 % 0.0 in 0.0 W/m2 CLR
22:07 18.7 °F 14.8 °F 1017.8 in NW 24.1 mph 24.1 mph 78 % 0.0 in 0.0 W/m2 CLR
22:12 18.5 °F 14.6 °F 1018.2 in NW 20.4 mph 20.4 mph 78 % 0.0 in 0.0 W/m2 CLR
22:17 18.4 °F 14.7 °F 1018.2 in WNW 18.5 mph 18.5 mph 79 % 0.0 in 0.0 W/m2 CLR
22:22 18.3 °F 14.6 °F 1018.2 in WNW 13.0 mph 13.0 mph 79 % 0.0 in 0.0 W/m2 CLR
22:27 18.2 °F 14.7 °F 1018.5 in WNW 5.6 mph   80 % 0.0 in 0.0 W/m2 CLR
22:32 18.1 °F 14.6 °F 1018.5 in Calm     80 % 0.0 in 0.0 W/m2 CLR
22:37 18.0 °F 14.5 °F 1018.5 in Calm     80 % 0.0 in 0.0 W/m2 CLR
22:42 17.9 °F 14.4 °F 1018.5 in West 6.4 mph 6.4 mph 80 % 0.0 in 0.0 W/m2 CLR
22:47 17.9 °F 14.4 °F 1018.5 in WNW 11.1 mph 11.1 mph 80 % 0.0 in 0.0 W/m2 CLR
22:52 17.9 °F 14.4 °F 1018.5 in Calm     80 % 0.0 in 0.0 W/m2 CLR
22:57 17.9 °F 14.4 °F 1018.8 in West 8.0 mph 8.0 mph 80 % 0.0 in 0.0 W/m2 CLR
23:02 17.8 °F 14.3 °F 1018.5 in Calm     80 % 0.0 in 0.0 W/m2 CLR
23:07 17.8 °F 14.5 °F 1018.8 in Calm     81 % 0.0 in 0.0 W/m2 CLR
23:12 17.7 °F 14.4 °F 1018.8 in Calm     81 % 0.0 in 0.0 W/m2 CLR
23:17 17.7 °F 14.4 °F 1018.8 in Calm     81 % 0.0 in 0.0 W/m2 CLR
23:22 17.8 °F 14.5 °F 1018.8 in Calm     81 % 0.0 in 0.0 W/m2 CLR
23:27 17.8 °F 14.3 °F 1019.2 in Calm     80 % 0.0 in 0.0 W/m2 CLR
23:32 17.8 °F 14.5 °F 1019.2 in Calm     81 % 0.0 in 0.0 W/m2 CLR
23:37 17.8 °F 14.7 °F 1018.8 in Calm     82 % 0.0 in 0.0 W/m2 CLR
23:42 17.8 °F 14.5 °F 1019.2 in Calm     81 % 0.0 in 0.0 W/m2 CLR
23:47 17.9 °F 14.6 °F 1018.8 in Calm     81 % 0.0 in 0.0 W/m2 CLR
23:52 17.9 °F 14.6 °F 1018.8 in Calm     81 % 0.0 in 0.0 W/m2 CLR
23:57 18.0 °F 14.5 °F 1018.8 in Calm     80 % 0.0 in 0.0 W/m2 CLR
Lo Temps de Massalio
Compliments of Weather Underground - 1.25 mb